sensor_id;sensor_type;location;lat;lon;timestamp;pressure;altitude;pressure_sealevel;temperature;humidity
35435;BME280;21556;55.782;37.528;2023-02-28T00:00:33;100251.63;;;-4.71;100.00
35435;BME280;21556;55.782;37.528;2023-02-28T00:02:59;100257.91;;;-4.47;100.00
35435;BME280;21556;55.782;37.528;2023-02-28T00:05:27;100248.44;;;-4.48;100.00
35435;BME280;21556;55.782;37.528;2023-02-28T00:07:54;100254.66;;;-4.86;100.00
35435;BME280;21556;55.782;37.528;2023-02-28T00:10:29;100248.94;;;-4.52;100.00
35435;BME280;21556;55.782;37.528;2023-02-28T00:13:00;100245.88;;;-4.58;100.00
35435;BME280;21556;55.782;37.528;2023-02-28T00:15:26;100247.03;;;-4.55;100.00
35435;BME280;21556;55.782;37.528;2023-02-28T00:17:52;100236.84;;;-5.04;100.00
35435;BME280;21556;55.782;37.528;2023-02-28T00:20:18;100223.94;;;-4.96;100.00
35435;BME280;21556;55.782;37.528;2023-02-28T00:22:47;100245.28;;;-5.35;100.00
35435;BME280;21556;55.782;37.528;2023-02-28T00:25:16;100238.59;;;-5.43;100.00
35435;BME280;21556;55.782;37.528;2023-02-28T00:27:43;100238.72;;;-5.51;100.00
35435;BME280;21556;55.782;37.528;2023-02-28T00:30:12;100244.63;;;-5.42;100.00
35435;BME280;21556;55.782;37.528;2023-02-28T00:32:39;100241.06;;;-4.95;100.00
35435;BME280;21556;55.782;37.528;2023-02-28T00:35:07;100235.09;;;-4.75;100.00
35435;BME280;21556;55.782;37.528;2023-02-28T00:37:33;100230.13;;;-5.13;100.00
35435;BME280;21556;55.782;37.528;2023-02-28T00:39:59;100230.19;;;-5.02;100.00
35435;BME280;21556;55.782;37.528;2023-02-28T00:42:26;100227.38;;;-5.35;100.00
35435;BME280;21556;55.782;37.528;2023-02-28T00:44:52;100233.84;;;-5.48;100.00
35435;BME280;21556;55.782;37.528;2023-02-28T00:47:18;100230.50;;;-5.28;100.00
35435;BME280;21556;55.782;37.528;2023-02-28T00:49:44;100222.22;;;-5.05;100.00
35435;BME280;21556;55.782;37.528;2023-02-28T00:52:10;100216.84;;;-5.09;100.00
35435;BME280;21556;55.782;37.528;2023-02-28T00:54:36;100207.91;;;-5.03;100.00
35435;BME280;21556;55.782;37.528;2023-02-28T00:57:02;100213.84;;;-5.34;100.00
35435;BME280;21556;55.782;37.528;2023-02-28T00:59:31;100199.97;;;-5.06;100.00
35435;BME280;21556;55.782;37.528;2023-02-28T01:01:58;100191.31;;;-4.88;100.00
35435;BME280;21556;55.782;37.528;2023-02-28T01:04:23;100193.47;;;-4.72;100.00
35435;BME280;21556;55.782;37.528;2023-02-28T01:06:49;100184.41;;;-4.89;100.00
35435;BME280;21556;55.782;37.528;2023-02-28T01:09:15;100191.31;;;-4.78;100.00
35435;BME280;21556;55.782;37.528;2023-02-28T01:11:42;100177.50;;;-4.90;100.00
35435;BME280;21556;55.782;37.528;2023-02-28T01:14:13;100177.31;;;-5.02;100.00
35435;BME280;21556;55.782;37.528;2023-02-28T01:16:39;100158.13;;;-5.17;100.00
35435;BME280;21556;55.782;37.528;2023-02-28T01:19:05;100164.06;;;-5.47;100.00
35435;BME280;21556;55.782;37.528;2023-02-28T01:21:31;100144.97;;;-4.91;100.00
35435;BME280;21556;55.782;37.528;2023-02-28T01:23:57;100137.97;;;-4.94;100.00
35435;BME280;21556;55.782;37.528;2023-02-28T01:26:24;100126.16;;;-5.02;100.00
35435;BME280;21556;55.782;37.528;2023-02-28T01:28:51;100133.06;;;-5.11;100.00
35435;BME280;21556;55.782;37.528;2023-02-28T01:31:18;100137.28;;;-5.12;100.00
35435;BME280;21556;55.782;37.528;2023-02-28T01:33:44;100130.25;;;-4.84;100.00
35435;BME280;21556;55.782;37.528;2023-02-28T01:36:16;100126.66;;;-5.16;100.00
35435;BME280;21556;55.782;37.528;2023-02-28T01:38:43;100115.66;;;-5.05;100.00
35435;BME280;21556;55.782;37.528;2023-02-28T01:41:24;100112.69;;;-5.20;100.00
35435;BME280;21556;55.782;37.528;2023-02-28T01:44:07;100116.53;;;-5.25;100.00
35435;BME280;21556;55.782;37.528;2023-02-28T01:46:52;100105.16;;;-4.98;100.00
35435;BME280;21556;55.782;37.528;2023-02-28T01:49:18;100095.72;;;-4.99;100.00
35435;BME280;21556;55.782;37.528;2023-02-28T01:51:49;100085.72;;;-4.96;100.00
35435;BME280;21556;55.782;37.528;2023-02-28T01:54:27;100089.31;;;-5.04;100.00
35435;BME280;21556;55.782;37.528;2023-02-28T01:56:58;100079.81;;;-5.36;100.00
35435;BME280;21556;55.782;37.528;2023-02-28T02:01:58;100086.25;;;-4.90;100.00
35435;BME280;21556;55.782;37.528;2023-02-28T02:04:26;100070.13;;;-4.99;100.00
35435;BME280;21556;55.782;37.528;2023-02-28T02:06:58;100070.38;;;-5.26;100.00
35435;BME280;21556;55.782;37.528;2023-02-28T02:09:24;100057.19;;;-5.11;100.00
35435;BME280;21556;55.782;37.528;2023-02-28T02:11:55;100060.25;;;-5.25;100.00
35435;BME280;21556;55.782;37.528;2023-02-28T02:17:05;100059.38;;;-5.15;100.00
35435;BME280;21556;55.782;37.528;2023-02-28T02:23:28;100060.13;;;-4.96;100.00
35435;BME280;21556;55.782;37.528;2023-02-28T02:29:21;100050.41;;;-5.20;100.00
35435;BME280;21556;55.782;37.528;2023-02-28T02:35:25;100040.44;;;-5.07;100.00
35435;BME280;21556;55.782;37.528;2023-02-28T02:38:11;100039.28;;;-4.90;100.00
35435;BME280;21556;55.782;37.528;2023-02-28T02:41:04;100032.88;;;-4.95;100.00
35435;BME280;21556;55.782;37.528;2023-02-28T02:43:43;100030.06;;;-4.98;100.00
35435;BME280;21556;55.782;37.528;2023-02-28T02:46:29;100018.56;;;-4.93;100.00
35435;BME280;21556;55.782;37.528;2023-02-28T02:48:59;100013.03;;;-4.88;100.00
35435;BME280;21556;55.782;37.528;2023-02-28T02:51:28;100011.16;;;-5.11;100.00
35435;BME280;21556;55.782;37.528;2023-02-28T02:56:30;99996.81;;;-5.09;100.00
35435;BME280;21556;55.782;37.528;2023-02-28T02:59:02;99990.69;;;-5.31;100.00
35435;BME280;21556;55.782;37.528;2023-02-28T03:01:31;99989.38;;;-5.05;100.00
35435;BME280;21556;55.782;37.528;2023-02-28T03:04:01;99997.31;;;-5.13;100.00
35435;BME280;21556;55.782;37.528;2023-02-28T03:06:28;99978.38;;;-4.94;100.00
35435;BME280;21556;55.782;37.528;2023-02-28T03:08:54;99973.16;;;-5.16;100.00
35435;BME280;21556;55.782;37.528;2023-02-28T03:11:21;99971.50;;;-5.36;100.00
35435;BME280;21556;55.782;37.528;2023-02-28T03:22:37;99959.63;;;-5.15;100.00
35435;BME280;21556;55.782;37.528;2023-02-28T03:27:42;99952.84;;;-5.35;100.00
35435;BME280;21556;55.782;37.528;2023-02-28T03:30:23;99943.84;;;-5.10;100.00
35435;BME280;21556;55.782;37.528;2023-02-28T03:35:27;99938.00;;;-5.19;100.00
35435;BME280;21556;55.782;37.528;2023-02-28T03:38:22;99938.66;;;-5.32;100.00
35435;BME280;21556;55.782;37.528;2023-02-28T03:41:00;99937.75;;;-5.32;100.00
35435;BME280;21556;55.782;37.528;2023-02-28T03:43:31;99926.16;;;-5.59;100.00
35435;BME280;21556;55.782;37.528;2023-02-28T03:46:01;99926.53;;;-5.54;100.00
35435;BME280;21556;55.782;37.528;2023-02-28T03:48:42;99925.22;;;-5.39;100.00
35435;BME280;21556;55.782;37.528;2023-02-28T03:51:15;99918.59;;;-5.37;100.00
35435;BME280;21556;55.782;37.528;2023-02-28T03:54:08;99904.28;;;-4.93;100.00
35435;BME280;21556;55.782;37.528;2023-02-28T03:56:43;99901.69;;;-5.25;100.00
35435;BME280;21556;55.782;37.528;2023-02-28T03:59:15;99902.81;;;-5.21;100.00
35435;BME280;21556;55.782;37.528;2023-02-28T04:01:46;99879.88;;;-5.10;100.00
35435;BME280;21556;55.782;37.528;2023-02-28T04:04:13;99868.59;;;-5.44;100.00
35435;BME280;21556;55.782;37.528;2023-02-28T04:06:40;99877.53;;;-5.39;100.00
35435;BME280;21556;55.782;37.528;2023-02-28T04:09:09;99875.75;;;-5.40;100.00
35435;BME280;21556;55.782;37.528;2023-02-28T04:11:41;99853.16;;;-5.76;100.00
35435;BME280;21556;55.782;37.528;2023-02-28T04:14:08;99862.50;;;-5.76;100.00
35435;BME280;21556;55.782;37.528;2023-02-28T04:16:36;99877.06;;;-5.65;100.00
35435;BME280;21556;55.782;37.528;2023-02-28T04:19:04;99870.13;;;-5.36;100.00
35435;BME280;21556;55.782;37.528;2023-02-28T04:21:38;99869.22;;;-5.26;100.00
35435;BME280;21556;55.782;37.528;2023-02-28T04:24:05;99865.69;;;-5.69;100.00
35435;BME280;21556;55.782;37.528;2023-02-28T04:26:32;99865.09;;;-5.34;100.00
35435;BME280;21556;55.782;37.528;2023-02-28T04:29:01;99849.53;;;-5.37;100.00
35435;BME280;21556;55.782;37.528;2023-02-28T04:31:29;99849.19;;;-5.62;100.00
35435;BME280;21556;55.782;37.528;2023-02-28T04:33:55;99845.97;;;-5.60;100.00
35435;BME280;21556;55.782;37.528;2023-02-28T04:36:21;99842.69;;;-5.69;100.00
35435;BME280;21556;55.782;37.528;2023-02-28T04:38:51;99844.47;;;-5.78;100.00
35435;BME280;21556;55.782;37.528;2023-02-28T04:41:17;99838.56;;;-5.46;100.00
35435;BME280;21556;55.782;37.528;2023-02-28T04:43:43;99845.41;;;-5.98;100.00
35435;BME280;21556;55.782;37.528;2023-02-28T04:46:09;99832.91;;;-6.05;100.00
35435;BME280;21556;55.782;37.528;2023-02-28T04:48:37;99835.19;;;-5.98;100.00
35435;BME280;21556;55.782;37.528;2023-02-28T04:51:06;99816.75;;;-5.73;100.00
35435;BME280;21556;55.782;37.528;2023-02-28T04:53:32;99808.09;;;-6.37;100.00
35435;BME280;21556;55.782;37.528;2023-02-28T04:55:58;99813.47;;;-5.93;100.00
35435;BME280;21556;55.782;37.528;2023-02-28T04:58:24;99814.25;;;-6.04;100.00
35435;BME280;21556;55.782;37.528;2023-02-28T05:00:52;99817.91;;;-5.90;100.00
35435;BME280;21556;55.782;37.528;2023-02-28T05:03:24;99814.13;;;-6.16;100.00
35435;BME280;21556;55.782;37.528;2023-02-28T05:05:50;99802.09;;;-5.96;100.00
35435;BME280;21556;55.782;37.528;2023-02-28T05:08:16;99780.66;;;-5.56;100.00
35435;BME280;21556;55.782;37.528;2023-02-28T05:10:42;99781.19;;;-5.60;100.00
35435;BME280;21556;55.782;37.528;2023-02-28T05:13:11;99784.91;;;-5.67;100.00
35435;BME280;21556;55.782;37.528;2023-02-28T05:15:37;99765.66;;;-5.41;100.00
35435;BME280;21556;55.782;37.528;2023-02-28T05:18:03;99767.94;;;-5.34;100.00
35435;BME280;21556;55.782;37.528;2023-02-28T05:20:29;99758.81;;;-5.20;100.00
35435;BME280;21556;55.782;37.528;2023-02-28T05:22:56;99768.69;;;-5.25;100.00
35435;BME280;21556;55.782;37.528;2023-02-28T05:25:24;99734.94;;;-5.31;100.00
35435;BME280;21556;55.782;37.528;2023-02-28T05:27:49;99735.13;;;-5.18;100.00
35435;BME280;21556;55.782;37.528;2023-02-28T05:30:17;99741.22;;;-5.38;100.00
35435;BME280;21556;55.782;37.528;2023-02-28T05:32:43;99725.41;;;-5.12;100.00
35435;BME280;21556;55.782;37.528;2023-02-28T05:35:11;99731.75;;;-5.06;100.00
35435;BME280;21556;55.782;37.528;2023-02-28T05:37:38;99726.97;;;-5.02;100.00
35435;BME280;21556;55.782;37.528;2023-02-28T05:40:05;99723.25;;;-4.95;100.00
35435;BME280;21556;55.782;37.528;2023-02-28T05:42:38;99707.47;;;-4.90;100.00
35435;BME280;21556;55.782;37.528;2023-02-28T05:45:05;99696.47;;;-4.89;100.00
35435;BME280;21556;55.782;37.528;2023-02-28T05:47:32;99691.53;;;-4.97;100.00
35435;BME280;21556;55.782;37.528;2023-02-28T05:49:58;99697.16;;;-4.79;100.00
35435;BME280;21556;55.782;37.528;2023-02-28T05:52:24;99694.38;;;-4.49;100.00
35435;BME280;21556;55.782;37.528;2023-02-28T05:54:50;99667.16;;;-4.01;100.00
35435;BME280;21556;55.782;37.528;2023-02-28T05:58:31;99664.09;;;-3.37;100.00
35435;BME280;21556;55.782;37.528;2023-02-28T06:01:00;99672.84;;;-3.94;100.00
35435;BME280;21556;55.782;37.528;2023-02-28T06:03:43;99668.94;;;-4.12;100.00
35435;BME280;21556;55.782;37.528;2023-02-28T06:06:09;99640.03;;;-2.64;100.00
35435;BME280;21556;55.782;37.528;2023-02-28T06:08:36;99623.91;;;-2.23;100.00
35435;BME280;21556;55.782;37.528;2023-02-28T06:11:04;99610.72;;;-1.75;100.00
35435;BME280;21556;55.782;37.528;2023-02-28T06:13:32;99620.09;;;-1.07;100.00
35435;BME280;21556;55.782;37.528;2023-02-28T06:16:01;99604.63;;;-1.35;100.00
35435;BME280;21556;55.782;37.528;2023-02-28T06:18:28;99604.53;;;-1.37;100.00
35435;BME280;21556;55.782;37.528;2023-02-28T06:20:57;99604.16;;;-1.43;100.00
35435;BME280;21556;55.782;37.528;2023-02-28T06:23:23;99591.28;;;-1.43;100.00
35435;BME280;21556;55.782;37.528;2023-02-28T06:25:49;99601.13;;;-1.23;100.00
35435;BME280;21556;55.782;37.528;2023-02-28T06:28:16;99581.53;;;-1.62;100.00
35435;BME280;21556;55.782;37.528;2023-02-28T06:30:42;99580.03;;;-1.45;100.00
35435;BME280;21556;55.782;37.528;2023-02-28T06:33:08;99581.56;;;-2.15;100.00
35435;BME280;21556;55.782;37.528;2023-02-28T06:35:37;99597.00;;;-2.28;100.00
35435;BME280;21556;55.782;37.528;2023-02-28T06:38:03;99574.81;;;-2.79;100.00
35435;BME280;21556;55.782;37.528;2023-02-28T06:40:29;99580.38;;;-2.60;100.00
35435;BME280;21556;55.782;37.528;2023-02-28T06:42:59;99574.19;;;-2.88;100.00
35435;BME280;21556;55.782;37.528;2023-02-28T06:45:25;99576.53;;;-2.92;100.00
35435;BME280;21556;55.782;37.528;2023-02-28T06:47:52;99569.34;;;-2.84;100.00
35435;BME280;21556;55.782;37.528;2023-02-28T06:50:18;99554.34;;;-3.16;100.00
35435;BME280;21556;55.782;37.528;2023-02-28T06:52:46;99546.03;;;-3.25;100.00
35435;BME280;21556;55.782;37.528;2023-02-28T06:55:15;99555.25;;;-3.16;100.00
35435;BME280;21556;55.782;37.528;2023-02-28T06:58:04;99526.81;;;-3.44;100.00
35435;BME280;21556;55.782;37.528;2023-02-28T07:00:44;99517.75;;;-3.39;100.00
35435;BME280;21556;55.782;37.528;2023-02-28T07:03:11;99514.06;;;-3.42;100.00
35435;BME280;21556;55.782;37.528;2023-02-28T07:05:39;99510.38;;;-3.34;100.00
35435;BME280;21556;55.782;37.528;2023-02-28T07:08:05;99506.53;;;-3.27;100.00
35435;BME280;21556;55.782;37.528;2023-02-28T07:10:32;99503.78;;;-3.55;100.00
35435;BME280;21556;55.782;37.528;2023-02-28T07:12:59;99495.50;;;-3.26;100.00
35435;BME280;21556;55.782;37.528;2023-02-28T07:15:25;99505.19;;;-3.09;100.00
35435;BME280;21556;55.782;37.528;2023-02-28T07:17:51;99486.38;;;-2.96;100.00
35435;BME280;21556;55.782;37.528;2023-02-28T07:20:17;99479.38;;;-2.85;100.00
35435;BME280;21556;55.782;37.528;2023-02-28T07:22:43;99480.50;;;-3.20;100.00
35435;BME280;21556;55.782;37.528;2023-02-28T07:25:09;99493.91;;;-3.24;100.00
35435;BME280;21556;55.782;37.528;2023-02-28T07:27:34;99471.75;;;-3.10;100.00
35435;BME280;21556;55.782;37.528;2023-02-28T07:30:00;99473.41;;;-3.49;100.00
35435;BME280;21556;55.782;37.528;2023-02-28T07:32:29;99468.56;;;-3.20;100.00
35435;BME280;21556;55.782;37.528;2023-02-28T07:34:55;99461.25;;;-3.27;100.00
35435;BME280;21556;55.782;37.528;2023-02-28T07:37:21;99455.22;;;-3.27;100.00
35435;BME280;21556;55.782;37.528;2023-02-28T07:39:47;99452.78;;;-3.12;100.00
35435;BME280;21556;55.782;37.528;2023-02-28T07:42:12;99440.78;;;-3.00;100.00
35435;BME280;21556;55.782;37.528;2023-02-28T07:44:39;99446.97;;;-2.83;100.00
35435;BME280;21556;55.782;37.528;2023-02-28T07:47:07;99441.56;;;-3.01;100.00
35435;BME280;21556;55.782;37.528;2023-02-28T07:49:35;99432.59;;;-2.68;100.00
35435;BME280;21556;55.782;37.528;2023-02-28T07:52:02;99446.47;;;-2.91;100.00
35435;BME280;21556;55.782;37.528;2023-02-28T07:54:28;99443.75;;;-2.68;100.00
35435;BME280;21556;55.782;37.528;2023-02-28T07:56:55;99435.84;;;-2.57;100.00
35435;BME280;21556;55.782;37.528;2023-02-28T07:59:20;99440.59;;;-2.63;100.00
35435;BME280;21556;55.782;37.528;2023-02-28T08:01:46;99432.63;;;-2.27;100.00
35435;BME280;21556;55.782;37.528;2023-02-28T08:04:14;99432.84;;;-2.37;100.00
35435;BME280;21556;55.782;37.528;2023-02-28T08:06:40;99424.25;;;-2.37;100.00
35435;BME280;21556;55.782;37.528;2023-02-28T08:09:05;99415.25;;;-2.44;100.00
35435;BME280;21556;55.782;37.528;2023-02-28T08:11:31;99408.19;;;-2.07;100.00
35435;BME280;21556;55.782;37.528;2023-02-28T08:13:57;99402.13;;;-2.49;100.00
35435;BME280;21556;55.782;37.528;2023-02-28T08:16:23;99392.38;;;-2.13;100.00
35435;BME280;21556;55.782;37.528;2023-02-28T08:18:52;99382.66;;;-2.32;100.00
35435;BME280;21556;55.782;37.528;2023-02-28T08:21:20;99374.59;;;-2.23;100.00
35435;BME280;21556;55.782;37.528;2023-02-28T08:23:47;99372.72;;;-2.26;100.00
35435;BME280;21556;55.782;37.528;2023-02-28T08:26:15;99363.72;;;-2.19;100.00
35435;BME280;21556;55.782;37.528;2023-02-28T08:28:40;99349.53;;;-2.40;100.00
35435;BME280;21556;55.782;37.528;2023-02-28T08:31:11;99347.69;;;-2.43;100.00
35435;BME280;21556;55.782;37.528;2023-02-28T08:33:37;99347.97;;;-2.10;100.00
35435;BME280;21556;55.782;37.528;2023-02-28T08:36:05;99374.88;;;-2.19;100.00
35435;BME280;21556;55.782;37.528;2023-02-28T08:38:31;99413.41;;;-2.47;100.00
35435;BME280;21556;55.782;37.528;2023-02-28T08:40:59;99394.53;;;-2.06;100.00
35435;BME280;21556;55.782;37.528;2023-02-28T08:43:25;99406.69;;;-2.84;100.00
35435;BME280;21556;55.782;37.528;2023-02-28T08:45:52;99425.34;;;-2.47;100.00
35435;BME280;21556;55.782;37.528;2023-02-28T08:48:18;99407.00;;;-2.25;100.00
35435;BME280;21556;55.782;37.528;2023-02-28T08:50:44;99409.09;;;-2.33;100.00
35435;BME280;21556;55.782;37.528;2023-02-28T08:53:10;99398.91;;;-1.90;100.00
35435;BME280;21556;55.782;37.528;2023-02-28T08:55:35;99393.88;;;-2.16;100.00
35435;BME280;21556;55.782;37.528;2023-02-28T08:58:01;99383.97;;;-2.10;100.00
35435;BME280;21556;55.782;37.528;2023-02-28T09:00:28;99388.50;;;-2.06;100.00
35435;BME280;21556;55.782;37.528;2023-02-28T09:02:54;99379.28;;;-2.31;100.00
35435;BME280;21556;55.782;37.528;2023-02-28T09:05:20;99381.22;;;-2.13;100.00
35435;BME280;21556;55.782;37.528;2023-02-28T09:07:46;99378.69;;;-1.99;100.00
35435;BME280;21556;55.782;37.528;2023-02-28T09:10:12;99364.13;;;-1.98;100.00
35435;BME280;21556;55.782;37.528;2023-02-28T09:12:38;99356.03;;;-2.04;100.00
35435;BME280;21556;55.782;37.528;2023-02-28T09:15:05;99351.25;;;-2.13;100.00
35435;BME280;21556;55.782;37.528;2023-02-28T09:17:30;99353.38;;;-1.78;100.00
35435;BME280;21556;55.782;37.528;2023-02-28T09:19:59;99338.72;;;-1.79;100.00
35435;BME280;21556;55.782;37.528;2023-02-28T09:22:24;99334.88;;;-1.85;100.00
35435;BME280;21556;55.782;37.528;2023-02-28T09:24:50;99333.31;;;-1.68;100.00
35435;BME280;21556;55.782;37.528;2023-02-28T09:27:16;99340.38;;;-1.94;100.00
35435;BME280;21556;55.782;37.528;2023-02-28T09:29:42;99342.66;;;-1.71;100.00
35435;BME280;21556;55.782;37.528;2023-02-28T09:32:08;99343.41;;;-1.72;100.00
35435;BME280;21556;55.782;37.528;2023-02-28T09:34:34;99347.94;;;-1.67;100.00
35435;BME280;21556;55.782;37.528;2023-02-28T09:37:02;99350.28;;;-1.42;100.00
35435;BME280;21556;55.782;37.528;2023-02-28T09:39:28;99350.97;;;-1.60;100.00
35435;BME280;21556;55.782;37.528;2023-02-28T09:41:55;99337.94;;;-1.78;100.00
35435;BME280;21556;55.782;37.528;2023-02-28T09:44:40;99326.16;;;-1.44;100.00
35435;BME280;21556;55.782;37.528;2023-02-28T09:47:15;99329.97;;;-1.38;100.00
35435;BME280;21556;55.782;37.528;2023-02-28T09:49:45;99310.72;;;-1.59;100.00
35435;BME280;21556;55.782;37.528;2023-02-28T09:52:17;99300.94;;;-1.50;100.00
35435;BME280;21556;55.782;37.528;2023-02-28T09:54:45;99307.97;;;-1.62;100.00
35435;BME280;21556;55.782;37.528;2023-02-28T09:57:35;99298.47;;;-1.49;100.00
35435;BME280;21556;55.782;37.528;2023-02-28T10:05:38;99288.72;;;-1.54;100.00
35435;BME280;21556;55.782;37.528;2023-02-28T10:08:19;99278.16;;;-1.59;100.00
35435;BME280;21556;55.782;37.528;2023-02-28T10:10:53;99277.78;;;-1.50;100.00
35435;BME280;21556;55.782;37.528;2023-02-28T10:13:54;99263.22;;;-1.35;100.00
35435;BME280;21556;55.782;37.528;2023-02-28T10:16:25;99259.06;;;-1.33;100.00
35435;BME280;21556;55.782;37.528;2023-02-28T10:19:02;99251.88;;;-1.53;100.00
35435;BME280;21556;55.782;37.528;2023-02-28T10:21:39;99248.50;;;-1.06;100.00
35435;BME280;21556;55.782;37.528;2023-02-28T10:24:29;99236.88;;;-1.31;100.00
35435;BME280;21556;55.782;37.528;2023-02-28T10:27:06;99239.31;;;-1.17;100.00
35435;BME280;21556;55.782;37.528;2023-02-28T10:29:41;99228.81;;;-1.37;100.00
35435;BME280;21556;55.782;37.528;2023-02-28T10:32:11;99240.16;;;-1.33;100.00
35435;BME280;21556;55.782;37.528;2023-02-28T10:34:38;99233.69;;;-1.56;100.00
35435;BME280;21556;55.782;37.528;2023-02-28T10:37:03;99235.66;;;-1.52;100.00
35435;BME280;21556;55.782;37.528;2023-02-28T10:39:43;99239.31;;;-1.49;100.00
35435;BME280;21556;55.782;37.528;2023-02-28T10:42:29;99230.22;;;-1.42;100.00
35435;BME280;21556;55.782;37.528;2023-02-28T10:45:15;99223.03;;;-1.33;100.00
35435;BME280;21556;55.782;37.528;2023-02-28T10:58:55;99200.88;;;-1.14;100.00
35435;BME280;21556;55.782;37.528;2023-02-28T11:03:51;99194.13;;;-0.96;100.00
35435;BME280;21556;55.782;37.528;2023-02-28T11:06:23;99194.94;;;-1.44;100.00
35435;BME280;21556;55.782;37.528;2023-02-28T11:09:04;99197.34;;;-0.84;100.00
35435;BME280;21556;55.782;37.528;2023-02-28T11:11:42;99179.97;;;-1.04;100.00
35435;BME280;21556;55.782;37.528;2023-02-28T11:14:20;99189.56;;;-1.02;100.00
35435;BME280;21556;55.782;37.528;2023-02-28T11:16:48;99180.63;;;-0.92;100.00
35435;BME280;21556;55.782;37.528;2023-02-28T11:19:40;99181.66;;;-1.36;100.00
35435;BME280;21556;55.782;37.528;2023-02-28T11:22:09;99173.44;;;-1.14;100.00
35435;BME280;21556;55.782;37.528;2023-02-28T11:24:42;99178.47;;;-1.32;100.00
35435;BME280;21556;55.782;37.528;2023-02-28T11:30:00;99165.75;;;-0.98;100.00
35435;BME280;21556;55.782;37.528;2023-02-28T11:32:27;99165.38;;;-1.20;100.00
35435;BME280;21556;55.782;37.528;2023-02-28T11:37:39;99155.34;;;-0.99;100.00
35435;BME280;21556;55.782;37.528;2023-02-28T11:40:26;99165.63;;;-0.99;100.00
35435;BME280;21556;55.782;37.528;2023-02-28T11:43:04;99151.41;;;-0.92;100.00
35435;BME280;21556;55.782;37.528;2023-02-28T11:45:49;99138.72;;;-1.37;100.00
35435;BME280;21556;55.782;37.528;2023-02-28T11:48:26;99145.75;;;-1.18;100.00
35435;BME280;21556;55.782;37.528;2023-02-28T11:51:31;99147.06;;;-0.93;100.00
35435;BME280;21556;55.782;37.528;2023-02-28T11:56:54;99148.59;;;-0.97;100.00
35435;BME280;21556;55.782;37.528;2023-02-28T12:13:43;99132.09;;;-1.01;100.00
35435;BME280;21556;55.782;37.528;2023-02-28T12:16:38;99139.72;;;-0.69;100.00
35435;BME280;21556;55.782;37.528;2023-02-28T12:22:05;99118.91;;;-1.23;100.00
35435;BME280;21556;55.782;37.528;2023-02-28T12:24:39;99127.97;;;-1.13;100.00
35435;BME280;21556;55.782;37.528;2023-02-28T12:27:14;99133.53;;;-1.22;100.00
35435;BME280;21556;55.782;37.528;2023-02-28T12:32:32;99119.59;;;-1.26;100.00
35435;BME280;21556;55.782;37.528;2023-02-28T12:35:25;99118.91;;;-1.23;100.00
35435;BME280;21556;55.782;37.528;2023-02-28T12:37:57;99119.59;;;-1.26;100.00
35435;BME280;21556;55.782;37.528;2023-02-28T12:40:47;99108.03;;;-1.01;100.00
35435;BME280;21556;55.782;37.528;2023-02-28T12:43:17;99100.94;;;-1.22;100.00
35435;BME280;21556;55.782;37.528;2023-02-28T12:45:59;99105.69;;;-1.29;100.00
35435;BME280;21556;55.782;37.528;2023-02-28T12:48:37;99092.19;;;-1.25;100.00
35435;BME280;21556;55.782;37.528;2023-02-28T12:51:06;99096.13;;;-1.15;100.00
35435;BME280;21556;55.782;37.528;2023-02-28T12:53:38;99082.53;;;-0.97;100.00
35435;BME280;21556;55.782;37.528;2023-02-28T12:56:10;99063.53;;;-1.31;100.00
35435;BME280;21556;55.782;37.528;2023-02-28T12:58:52;99059.38;;;-1.29;100.00
35435;BME280;21556;55.782;37.528;2023-02-28T13:10:02;99037.28;;;-0.75;100.00
35435;BME280;21556;55.782;37.528;2023-02-28T13:12:29;99048.47;;;-0.91;100.00
35435;BME280;21556;55.782;37.528;2023-02-28T13:15:08;99049.44;;;-0.89;100.00
35435;BME280;21556;55.782;37.528;2023-02-28T13:17:40;99044.25;;;-1.23;100.00
35435;BME280;21556;55.782;37.528;2023-02-28T13:20:27;99044.56;;;-1.01;100.00
35435;BME280;21556;55.782;37.528;2023-02-28T13:22:55;99050.03;;;-1.11;100.00
35435;BME280;21556;55.782;37.528;2023-02-28T13:27:50;99045.53;;;-0.64;100.00
35435;BME280;21556;55.782;37.528;2023-02-28T13:33:34;99035.78;;;-0.70;100.00
35435;BME280;21556;55.782;37.528;2023-02-28T13:36:08;99020.06;;;-0.40;100.00
35435;BME280;21556;55.782;37.528;2023-02-28T13:38:42;99013.84;;;-0.28;100.00
35435;BME280;21556;55.782;37.528;2023-02-28T13:46:29;99001.09;;;-0.42;100.00
35435;BME280;21556;55.782;37.528;2023-02-28T13:48:55;98994.59;;;-0.34;100.00
35435;BME280;21556;55.782;37.528;2023-02-28T14:05:41;98998.03;;;-0.69;100.00
35435;BME280;21556;55.782;37.528;2023-02-28T14:08:17;99007.16;;;-0.58;100.00
35435;BME280;21556;55.782;37.528;2023-02-28T14:10:52;99013.13;;;-0.77;100.00
35435;BME280;21556;55.782;37.528;2023-02-28T14:13:43;98999.84;;;-0.51;100.00
35435;BME280;21556;55.782;37.528;2023-02-28T14:16:14;99010.44;;;-0.27;100.00
35435;BME280;21556;55.782;37.528;2023-02-28T14:18:48;98994.97;;;-0.27;100.00
35435;BME280;21556;55.782;37.528;2023-02-28T14:26:55;98980.16;;;-0.13;100.00
35435;BME280;21556;55.782;37.528;2023-02-28T14:32:32;98972.06;;;-0.03;100.00
35435;BME280;21556;55.782;37.528;2023-02-28T14:37:50;98958.44;;;0.00;100.00
35435;BME280;21556;55.782;37.528;2023-02-28T14:40:38;98966.78;;;0.14;100.00
35435;BME280;21556;55.782;37.528;2023-02-28T14:43:06;98965.03;;;0.13;100.00
35435;BME280;21556;55.782;37.528;2023-02-28T14:45:34;98954.91;;;0.17;100.00
35435;BME280;21556;55.782;37.528;2023-02-28T14:48:09;98957.50;;;-0.01;100.00
35435;BME280;21556;55.782;37.528;2023-02-28T14:50:36;98952.91;;;-0.26;100.00
35435;BME280;21556;55.782;37.528;2023-02-28T14:53:03;98954.97;;;-0.18;100.00
35435;BME280;21556;55.782;37.528;2023-02-28T14:55:34;98948.69;;;-0.06;100.00
35435;BME280;21556;55.782;37.528;2023-02-28T14:58:05;98956.31;;;-0.27;100.00
35435;BME280;21556;55.782;37.528;2023-02-28T15:00:34;98950.03;;;-0.14;100.00